Madoc, Canada
Current Conditions -  °F | °C
As of 6:00 PM on Friday 28 Nov 2014 (Local Time) from CYTR Reporting Station
Broken Clouds Broken Clouds  
Wind Chill: 18°   Ceiling: 10000
Heat Index: 25°   Visibility: 15mi
Dew Point: 14°   Wind: 6mph
Humidity: 64%   Direction: 290°WNW
Pressure: 30.21"   Gusts: NA
Location:  44.52°N, 77.48°W
Report Text: CYTR 282300Z 29005KT 15SM BKN100 M04/M10 A3021 RMK AC7 SLP236
Loading
Personal Weather Stations






























Interactive Weather Map New forecast layout! Learn more

10-Day Weather Forecast

Advertisements
Track Severe Weather on mobile